Time;durP1;ratioP1;P1;durP2;ratioP2;P2;SDS_P1;SDS_P2;PMS_P1;PMS_P2;Temp;Humidity;BMP_temperature;BMP_pressure;BME280_temperature;BME280_humidity;BME280_pressure;Samples;Min_cycle;Max_cycle;Signal;HPM_P1;HPM_P2
2022/08/15 00:00:34;;;;;;;5.00;4.47;;;;;;;;;;5016524;28;20520;-75
2022/08/15 00:03:00;;;;;;;4.70;4.30;;;;;;;;;;5016646;28;20411;-75
2022/08/15 00:05:27;;;;;;;4.73;4.23;;;;;;;;;;5016626;28;20781;-75
2022/08/15 00:07:54;;;;;;;5.60;4.17;;;;;;;;;;5015289;28;20415;-77
2022/08/15 00:10:21;;;;;;;4.50;4.10;;;;;;;;;;5014760;28;20514;-75
2022/08/15 00:12:48;;;;;;;4.90;4.03;;;;;;;;;;5016534;28;20406;-75
2022/08/15 00:15:16;;;;;;;4.67;4.20;;;;;;;;;;5016436;28;20442;-75
2022/08/15 00:17:43;;;;;;;4.57;4.13;;;;;;;;;;5016566;28;20494;-77
2022/08/15 00:20:10;;;;;;;3.63;3.33;;;;;;;;;;5015886;28;20422;-75
2022/08/15 00:22:43;;;;;;;8.20;4.20;;;;;;;;;;5015171;28;20438;-75
2022/08/15 00:25:09;;;;;;;4.23;2.93;;;;;;;;;;5016288;28;20978;-75
2022/08/15 00:27:36;;;;;;;6.47;4.00;;;;;;;;;;5016265;28;20417;-75
2022/08/15 00:30:03;;;;;;;5.20;3.50;;;;;;;;;;5015727;28;20493;-75
2022/08/15 00:32:31;;;;;;;6.10;3.67;;;;;;;;;;5016055;28;20402;-75
2022/08/15 00:34:57;;;;;;;6.17;3.70;;;;;;;;;;5015951;28;20414;-75
2022/08/15 00:37:23;;;;;;;5.37;3.27;;;;;;;;;;5015996;28;20424;-75
2022/08/15 00:39:49;;;;;;;6.53;2.77;;;;;;;;;;5015640;28;20426;-75
2022/08/15 00:42:19;;;;;;;7.90;2.90;;;;;;;;;;5015631;28;20426;-75
2022/08/15 00:44:46;;;;;;;6.73;2.60;;;;;;;;;;5015911;28;20515;-75
2022/08/15 00:47:17;;;;;;;4.30;2.50;;;;;;;;;;5015922;28;20449;-75
2022/08/15 00:49:45;;;;;;;5.67;2.57;;;;;;;;;;5015501;28;20776;-75
2022/08/15 00:52:16;;;;;;;10.17;2.80;;;;;;;;;;5015512;28;20423;-75
2022/08/15 00:54:42;;;;;;;6.63;2.70;;;;;;;;;;5015924;28;20422;-74
2022/08/15 00:57:08;;;;;;;7.73;2.70;;;;;;;;;;5015570;28;20414;-74
2022/08/15 00:59:36;;;;;;;4.60;3.00;;;;;;;;;;5015526;28;20421;-75
2022/08/15 01:02:05;;;;;;;9.10;3.13;;;;;;;;;;5015380;28;20477;-76
2022/08/15 01:04:31;;;;;;;5.90;3.10;;;;;;;;;;5015394;28;20497;-75
2022/08/15 01:06:58;;;;;;;3.83;2.50;;;;;;;;;;5014332;28;20422;-75
2022/08/15 01:09:25;;;;;;;7.83;2.87;;;;;;;;;;5015400;28;20406;-76
2022/08/15 01:11:54;;;;;;;5.20;2.87;;;;;;;;;;5015100;28;20517;-75
2022/08/15 01:14:20;;;;;;;9.90;3.10;;;;;;;;;;5015257;28;20407;-75
2022/08/15 01:16:46;;;;;;;14.13;3.30;;;;;;;;;;5015246;28;21332;-75
2022/08/15 01:19:27;;;;;;;8.63;3.10;;;;;;;;;;5015374;28;20411;-75
2022/08/15 01:22:00;;;;;;;9.73;3.17;;;;;;;;;;5014963;28;20430;-75
2022/08/15 01:24:37;;;;;;;4.97;2.50;;;;;;;;;;5014984;28;20465;-75
2022/08/15 01:27:03;;;;;;;7.80;3.00;;;;;;;;;;5015313;28;20834;-75
2022/08/15 01:29:29;;;;;;;6.80;3.30;;;;;;;;;;5015007;28;20910;-75
2022/08/15 01:31:56;;;;;;;6.30;2.70;;;;;;;;;;5014872;28;20835;-75
2022/08/15 01:34:22;;;;;;;8.03;3.27;;;;;;;;;;5014950;28;20409;-75
2022/08/15 01:36:49;;;;;;;6.20;3.30;;;;;;;;;;5015177;28;20421;-75
2022/08/15 01:39:19;;;;;;;4.93;3.23;;;;;;;;;;5014959;28;20514;-75
2022/08/15 01:42:00;;;;;;;8.60;2.40;;;;;;;;;;5014583;28;20429;-75
2022/08/15 01:44:38;;;;;;;8.00;3.03;;;;;;;;;;5014752;28;20457;-76
2022/08/15 01:47:04;;;;;;;5.87;3.07;;;;;;;;;;5014364;28;20446;-74
2022/08/15 01:49:36;;;;;;;4.03;2.30;;;;;;;;;;5014376;28;20450;-76
2022/08/15 01:52:04;;;;;;;8.53;2.60;;;;;;;;;;5014511;28;20457;-75
2022/08/15 01:54:32;;;;;;;3.00;2.40;;;;;;;;;;5014711;28;20415;-76
2022/08/15 01:56:59;;;;;;;5.50;2.43;;;;;;;;;;5014515;28;20421;-75
2022/08/15 01:59:25;;;;;;;4.57;2.60;;;;;;;;;;5014498;28;20768;-76
2022/08/15 02:01:56;;;;;;;3.23;2.50;;;;;;;;;;5014185;28;20438;-75
2022/08/15 02:04:26;;;;;;;6.53;3.20;;;;;;;;;;5014606;28;20461;-74
2022/08/15 02:06:52;;;;;;;5.10;2.40;;;;;;;;;;5014489;28;20410;-75
2022/08/15 02:09:20;;;;;;;3.37;2.40;;;;;;;;;;5014390;28;20419;-75
2022/08/15 02:11:46;;;;;;;7.57;2.63;;;;;;;;;;5013896;28;20453;-75
2022/08/15 02:14:13;;;;;;;4.33;2.30;;;;;;;;;;5014446;28;20449;-74
2022/08/15 02:16:40;;;;;;;4.40;2.47;;;;;;;;;;5014523;28;20425;-74
2022/08/15 02:19:07;;;;;;;3.37;2.20;;;;;;;;;;5013134;28;20425;-74
2022/08/15 02:21:33;;;;;;;5.67;3.00;;;;;;;;;;5013885;28;20927;-74
2022/08/15 02:23:59;;;;;;;4.40;2.67;;;;;;;;;;5014295;28;20962;-75
2022/08/15 02:26:26;;;;;;;5.17;2.43;;;;;;;;;;5014077;28;20402;-74
2022/08/15 02:28:53;;;;;;;3.90;2.60;;;;;;;;;;5013971;28;20883;-75
2022/08/15 02:31:21;;;;;;;2.97;2.00;;;;;;;;;;5013691;28;20546;-75
2022/08/15 02:33:48;;;;;;;5.00;2.57;;;;;;;;;;5014183;28;20444;-75
2022/08/15 02:36:16;;;;;;;7.03;2.70;;;;;;;;;;5013925;28;20505;-75
2022/08/15 02:38:43;;;;;;;2.60;2.40;;;;;;;;;;5014016;28;20418;-75
2022/08/15 02:41:09;;;;;;;7.27;2.40;;;;;;;;;;5013403;28;20430;-75
2022/08/15 02:43:40;;;;;;;5.50;2.60;;;;;;;;;;5013752;28;20470;-75
2022/08/15 02:46:06;;;;;;;2.77;2.30;;;;;;;;;;5013829;28;20413;-75
2022/08/15 02:48:32;;;;;;;5.93;2.40;;;;;;;;;;5013763;28;20895;-75
2022/08/15 02:50:58;;;;;;;4.93;2.37;;;;;;;;;;5013418;28;20456;-74
2022/08/15 02:53:25;;;;;;;5.77;2.67;;;;;;;;;;5013842;28;20469;-75
2022/08/15 02:55:51;;;;;;;4.07;2.67;;;;;;;;;;5014003;28;20800;-75
2022/08/15 02:58:18;;;;;;;4.43;3.03;;;;;;;;;;5012908;28;20446;-75
2022/08/15 03:00:47;;;;;;;4.20;2.23;;;;;;;;;;5013231;28;20434;-75
2022/08/15 03:03:14;;;;;;;4.53;2.50;;;;;;;;;;5013763;28;20461;-75
2022/08/15 03:05:43;;;;;;;2.60;2.40;;;;;;;;;;5013698;28;20417;-75
2022/08/15 03:08:09;;;;;;;3.00;2.50;;;;;;;;;;5013541;28;20415;-75
2022/08/15 03:10:37;;;;;;;6.13;2.13;;;;;;;;;;5011852;28;20513;-75
2022/08/15 03:13:07;;;;;;;7.27;2.43;;;;;;;;;;5013668;28;20403;-75
2022/08/15 03:15:44;;;;;;;3.13;2.33;;;;;;;;;;5013328;28;20468;-75
2022/08/15 03:18:10;;;;;;;3.67;2.10;;;;;;;;;;5013742;28;20826;-74
2022/08/15 03:20:37;;;;;;;2.30;2.10;;;;;;;;;;5012961;28;20438;-75
2022/08/15 03:23:04;;;;;;;5.30;2.10;;;;;;;;;;5013273;28;20465;-74
2022/08/15 03:25:30;;;;;;;3.73;2.27;;;;;;;;;;5013203;28;20440;-74
2022/08/15 03:27:57;;;;;;;6.13;2.40;;;;;;;;;;5013283;28;20418;-74
2022/08/15 03:30:23;;;;;;;4.13;2.50;;;;;;;;;;5012982;28;20461;-73
2022/08/15 03:32:51;;;;;;;5.10;2.47;;;;;;;;;;5013309;28;20410;-74
2022/08/15 03:35:17;;;;;;;4.70;2.87;;;;;;;;;;5013180;28;20428;-75
2022/08/15 03:37:43;;;;;;;2.77;1.90;;;;;;;;;;5013155;28;20812;-74
2022/08/15 03:40:10;;;;;;;4.23;2.20;;;;;;;;;;5012801;28;20438;-74
2022/08/15 03:42:36;;;;;;;3.50;2.40;;;;;;;;;;5013381;28;20437;-74
2022/08/15 03:45:04;;;;;;;2.97;2.30;;;;;;;;;;5013099;28;20458;-74
2022/08/15 03:47:30;;;;;;;3.03;2.60;;;;;;;;;;5013287;28;20403;-75
2022/08/15 03:49:57;;;;;;;6.70;2.60;;;;;;;;;;5012536;28;20411;-74
2022/08/15 03:52:23;;;;;;;3.30;2.50;;;;;;;;;;5013010;28;20431;-74
2022/08/15 03:54:49;;;;;;;6.33;2.83;;;;;;;;;;5013182;28;20422;-74
2022/08/15 03:57:15;;;;;;;4.73;2.30;;;;;;;;;;5013083;28;20820;-74
2022/08/15 03:59:41;;;;;;;5.30;2.77;;;;;;;;;;5012686;28;20477;-74
2022/08/15 04:02:08;;;;;;;5.47;2.80;;;;;;;;;;5012855;28;20435;-74
2022/08/15 04:04:34;;;;;;;3.90;2.37;;;;;;;;;;5012916;28;20565;-74
2022/08/15 04:07:00;;;;;;;5.33;2.57;;;;;;;;;;5013004;28;20438;-73
2022/08/15 04:09:26;;;;;;;3.87;2.50;;;;;;;;;;5014719;28;20449;-73
2022/08/15 04:11:54;;;;;;;5.87;2.90;;;;;;;;;;5016352;28;20441;-73
2022/08/15 04:14:21;;;;;;;3.40;2.80;;;;;;;;;;5016742;28;20410;-73
2022/08/15 04:16:47;;;;;;;4.17;2.77;;;;;;;;;;5016494;28;20941;-73
2022/08/15 04:19:15;;;;;;;4.13;2.20;;;;;;;;;;5016482;28;20505;-74
2022/08/15 04:21:41;;;;;;;3.70;2.10;;;;;;;;;;5015991;28;20446;-73
2022/08/15 04:24:07;;;;;;;5.47;2.07;;;;;;;;;;5016148;28;20476;-74
2022/08/15 04:26:34;;;;;;;3.33;2.13;;;;;;;;;;5016456;28;20887;-73
2022/08/15 04:29:00;;;;;;;6.23;2.97;;;;;;;;;;5016329;28;20410;-74
2022/08/15 04:31:26;;;;;;;4.60;2.90;;;;;;;;;;5015914;28;20426;-74
2022/08/15 04:33:52;;;;;;;4.40;2.53;;;;;;;;;;5016227;28;20572;-74
2022/08/15 04:36:20;;;;;;;3.83;2.33;;;;;;;;;;5016184;28;20413;-74
2022/08/15 04:38:47;;;;;;;2.67;2.10;;;;;;;;;;5015992;28;20422;-74
2022/08/15 04:41:14;;;;;;;4.80;2.20;;;;;;;;;;5015638;28;20442;-74
2022/08/15 04:43:42;;;;;;;3.30;2.13;;;;;;;;;;5015815;28;20456;-74
2022/08/15 04:46:08;;;;;;;5.27;2.80;;;;;;;;;;5015709;28;20418;-74
2022/08/15 04:48:34;;;;;;;4.50;2.13;;;;;;;;;;5015907;28;20418;-74
2022/08/15 04:51:01;;;;;;;4.70;2.60;;;;;;;;;;5015421;28;20438;-74
2022/08/15 04:53:30;;;;;;;3.83;2.40;;;;;;;;;;5016118;28;20402;-74
2022/08/15 04:55:57;;;;;;;5.50;2.77;;;;;;;;;;5016036;28;20525;-74
2022/08/15 04:58:23;;;;;;;3.97;2.20;;;;;;;;;;5015572;28;20415;-73
2022/08/15 05:00:55;;;;;;;3.20;2.40;;;;;;;;;;5015292;28;20521;-73
2022/08/15 05:03:21;;;;;;;9.30;2.90;;;;;;;;;;5015621;28;20862;-74
2022/08/15 05:05:52;;;;;;;5.50;2.87;;;;;;;;;;5015654;28;20411;-74
2022/08/15 05:08:19;;;;;;;8.57;3.30;;;;;;;;;;5015576;28;20403;-74
2022/08/15 05:10:49;;;;;;;4.37;2.37;;;;;;;;;;5015265;28;20426;-74
2022/08/15 05:13:17;;;;;;;9.23;3.17;;;;;;;;;;5015433;28;20402;-74
2022/08/15 05:15:43;;;;;;;10.67;3.07;;;;;;;;;;5015475;28;20411;-73
2022/08/15 05:18:09;;;;;;;9.77;3.13;;;;;;;;;;5015186;28;20413;-73
2022/08/15 05:20:35;;;;;;;5.37;2.73;;;;;;;;;;5012778;28;20442;-73
2022/08/15 05:23:06;;;;;;;8.80;3.00;;;;;;;;;;5015203;28;20423;-74
2022/08/15 05:25:34;;;;;;;8.10;3.20;;;;;;;;;;5015224;28;21021;-74
2022/08/15 05:28:01;;;;;;;6.03;3.60;;;;;;;;;;5015104;28;20506;-74
2022/08/15 05:30:27;;;;;;;5.33;3.13;;;;;;;;;;5014435;28;20426;-75
2022/08/15 05:33:13;;;;;;;9.73;3.30;;;;;;;;;;5010679;28;20424;-74
2022/08/15 05:35:44;;;;;;;10.60;2.40;;;;;;;;;;5005251;28;20933;-74
2022/08/15 05:38:17;;;;;;;7.40;3.10;;;;;;;;;;5023080;28;20406;-74
2022/08/15 05:41:06;;;;;;;6.37;3.00;;;;;;;;;;5014261;28;20477;-73
2022/08/15 05:43:44;;;;;;;7.10;2.80;;;;;;;;;;5019161;28;20541;-75
2022/08/15 05:46:18;;;;;;;3.93;2.50;;;;;;;;;;5014849;28;20417;-74
2022/08/15 05:48:46;;;;;;;6.50;2.90;;;;;;;;;;5014428;28;20409;-74
2022/08/15 05:51:18;;;;;;;5.63;2.47;;;;;;;;;;5014216;28;20450;-74
2022/08/15 05:54:05;;;;;;;14.10;3.17;;;;;;;;;;5014539;28;20418;-73
2022/08/15 05:56:38;;;;;;;4.53;2.70;;;;;;;;;;5014700;28;20438;-74
2022/08/15 05:59:15;;;;;;;5.20;2.40;;;;;;;;;;5014665;28;20464;-74
2022/08/15 06:01:47;;;;;;;4.90;2.97;;;;;;;;;;5014161;28;20426;-75
2022/08/15 06:04:21;;;;;;;4.40;2.60;;;;;;;;;;5014264;28;20469;-74
2022/08/15 06:06:48;;;;;;;2.93;2.60;;;;;;;;;;5014398;28;20399;-73
2022/08/15 06:09:17;;;;;;;4.53;2.97;;;;;;;;;;5014619;28;20406;-76
2022/08/15 06:11:46;;;;;;;6.90;2.40;;;;;;;;;;5014288;28;20780;-76
2022/08/15 06:14:19;;;;;;;13.10;2.93;;;;;;;;;;5014490;28;20839;-76
2022/08/15 06:16:52;;;;;;;3.00;2.37;;;;;;;;;;5014312;28;20509;-76
2022/08/15 06:19:29;;;;;;;5.73;3.00;;;;;;;;;;5014348;28;20460;-77
2022/08/15 06:22:00;;;;;;;6.07;3.13;;;;;;;;;;5014121;28;20780;-75
2022/08/15 06:24:26;;;;;;;3.93;2.70;;;;;;;;;;5014041;28;20465;-75
2022/08/15 06:26:59;;;;;;;5.40;3.00;;;;;;;;;;5014015;28;20493;-76
2022/08/15 06:29:43;;;;;;;6.50;3.00;;;;;;;;;;5014050;28;20403;-77
2022/08/15 06:32:14;;;;;;;4.10;2.60;;;;;;;;;;5013840;28;20436;-73
2022/08/15 06:34:49;;;;;;;4.47;2.50;;;;;;;;;;5013728;28;20854;-73
2022/08/15 06:37:22;;;;;;;5.43;3.07;;;;;;;;;;5013932;28;20456;-73
2022/08/15 06:40:06;;;;;;;5.30;3.53;;;;;;;;;;5013391;28;20461;-73
2022/08/15 06:42:37;;;;;;;9.77;2.43;;;;;;;;;;5013917;28;20415;-73
2022/08/15 06:45:06;;;;;;;5.03;2.60;;;;;;;;;;5013609;28;20467;-73
2022/08/15 06:47:32;;;;;;;9.00;2.90;;;;;;;;;;5013702;28;20442;-77
2022/08/15 06:50:06;;;;;;;5.43;2.53;;;;;;;;;;5013435;28;20851;-76
2022/08/15 06:52:32;;;;;;;4.90;3.00;;;;;;;;;;5013747;28;20773;-76
2022/08/15 06:54:59;;;;;;;3.57;2.47;;;;;;;;;;5013572;28;20444;-76
2022/08/15 06:57:25;;;;;;;5.50;2.73;;;;;;;;;;5010017;28;21067;-75
2022/08/15 07:00:02;;;;;;;9.30;3.00;;;;;;;;;;5023416;28;20414;-76
2022/08/15 07:02:45;;;;;;;5.00;2.73;;;;;;;;;;5022189;28;20501;-76
2022/08/15 07:05:11;;;;;;;7.10;2.40;;;;;;;;;;5023974;28;20556;-77
2022/08/15 07:07:45;;;;;;;6.50;3.27;;;;;;;;;;5021357;28;20528;-76
2022/08/15 07:10:16;;;;;;;12.80;2.90;;;;;;;;;;5013146;28;20765;-76
2022/08/15 07:13:00;;;;;;;8.00;2.47;;;;;;;;;;5013479;28;20413;-76
2022/08/15 07:15:40;;;;;;;4.83;2.80;;;;;;;;;;5013075;28;20418;-76
2022/08/15 07:18:19;;;;;;;5.17;2.93;;;;;;;;;;5013643;28;20406;-76
2022/08/15 07:20:45;;;;;;;3.77;2.70;;;;;;;;;;5013269;28;20426;-76
2022/08/15 07:23:25;;;;;;;4.50;3.30;;;;;;;;;;5013220;28;20407;-76
2022/08/15 07:25:52;;;;;;;3.90;2.70;;;;;;;;;;5013658;28;20442;-77
2022/08/15 07:28:20;;;;;;;4.50;2.80;;;;;;;;;;5013481;28;20414;-76
2022/08/15 07:30:46;;;;;;;3.07;2.77;;;;;;;;;;5012984;28;20438;-76
2022/08/15 07:33:31;;;;;;;2.53;2.27;;;;;;;;;;5013328;28;20410;-77
2022/08/15 07:36:03;;;;;;;2.43;2.23;;;;;;;;;;5013534;28;20489;-76
2022/08/15 07:38:30;;;;;;;7.30;3.33;;;;;;;;;;5013239;28;20779;-76
2022/08/15 07:41:11;;;;;;;8.20;3.10;;;;;;;;;;5021050;28;20436;-75
2022/08/15 07:43:38;;;;;;;6.70;2.50;;;;;;;;;;5022796;28;20561;-76
2022/08/15 07:46:07;;;;;;;3.20;2.83;;;;;;;;;;5028391;28;20405;-76
2022/08/15 07:48:34;;;;;;;5.37;2.80;;;;;;;;;;5024746;28;20441;-76
2022/08/15 07:51:15;;;;;;;4.80;3.00;;;;;;;;;;5028789;28;20492;-76
2022/08/15 07:53:55;;;;;;;6.93;2.97;;;;;;;;;;5036536;28;20772;-75
2022/08/15 07:56:22;;;;;;;3.77;2.13;;;;;;;;;;5036651;28;20410;-76
2022/08/15 07:58:51;;;;;;;8.13;3.33;;;;;;;;;;5036594;28;20409;-76
2022/08/15 08:01:23;;;;;;;4.37;3.03;;;;;;;;;;5035943;28;20448;-76
2022/08/15 08:03:53;;;;;;;2.87;2.57;;;;;;;;;;5036409;28;20476;-77
2022/08/15 08:06:27;;;;;;;4.30;2.97;;;;;;;;;;5036483;28;20498;-76
2022/08/15 08:09:08;;;;;;;3.37;3.07;;;;;;;;;;5036541;28;20401;-77
2022/08/15 08:11:44;;;;;;;5.87;2.90;;;;;;;;;;5035995;28;20457;-77
2022/08/15 08:14:25;;;;;;;4.03;2.77;;;;;;;;;;5036303;28;20488;-78
2022/08/15 08:17:06;;;;;;;4.20;3.13;;;;;;;;;;5036367;28;20755;-78
2022/08/15 08:19:38;;;;;;;3.43;2.50;;;;;;;;;;5036127;28;20408;-77
2022/08/15 08:22:15;;;;;;;4.00;2.77;;;;;;;;;;5036300;28;20495;-77
2022/08/15 08:24:47;;;;;;;5.30;2.80;;;;;;;;;;5036155;28;20540;-76
2022/08/15 08:27:13;;;;;;;3.70;2.57;;;;;;;;;;5036257;28;20394;-76
2022/08/15 08:30:00;;;;;;;3.63;2.70;;;;;;;;;;5035579;28;20412;-76
2022/08/15 08:32:45;;;;;;;6.30;2.90;;;;;;;;;;5036184;28;20402;-76
2022/08/15 08:35:24;;;;;;;5.47;2.93;;;;;;;;;;5035988;28;20401;-77
2022/08/15 08:38:21;;;;;;;7.70;2.83;;;;;;;;;;5035815;28;20441;-76
2022/08/15 08:44:07;;;;;;;4.00;2.77;;;;;;;;;;5002348;28;20493;-78
2022/08/15 08:46:52;;;;;;;3.63;2.67;;;;;;;;;;5035795;28;20402;-76
2022/08/15 08:49:24;;;;;;;4.90;3.03;;;;;;;;;;5035677;28;20409;-76
2022/08/15 08:51:53;;;;;;;3.83;3.10;;;;;;;;;;5034829;28;20437;-77
2022/08/15 08:54:22;;;;;;;5.07;2.80;;;;;;;;;;5035773;28;20894;-76
2022/08/15 08:56:50;;;;;;;5.30;2.93;;;;;;;;;;5034415;28;20414;-77
2022/08/15 08:59:31;;;;;;;4.90;3.23;;;;;;;;;;5035525;28;20410;-77
2022/08/15 09:02:00;;;;;;;6.83;2.90;;;;;;;;;;5035299;28;20447;-77
2022/08/15 09:04:46;;;;;;;3.47;2.50;;;;;;;;;;5035400;28;20465;-76
2022/08/15 09:07:16;;;;;;;5.73;2.80;;;;;;;;;;5035513;28;20555;-77
2022/08/15 09:09:43;;;;;;;4.53;3.20;;;;;;;;;;5033935;28;20484;-76
2022/08/15 09:15:01;;;;;;;5.80;3.60;;;;;;;;;;5035656;28;20556;-75
2022/08/15 09:17:29;;;;;;;6.20;3.93;;;;;;;;;;5035348;28;20406;-76
2022/08/15 09:20:06;;;;;;;4.03;2.70;;;;;;;;;;5034783;28;20405;-76
2022/08/15 09:22:32;;;;;;;4.23;2.90;;;;;;;;;;5035284;28;20421;-75
2022/08/15 09:24:58;;;;;;;3.60;3.10;;;;;;;;;;5034996;28;20460;-76
2022/08/15 09:27:27;;;;;;;3.97;3.37;;;;;;;;;;5034967;28;20788;-76
2022/08/15 09:29:56;;;;;;;6.03;3.23;;;;;;;;;;5016920;28;20406;-76
2022/08/15 09:32:28;;;;;;;5.00;3.33;;;;;;;;;;5034844;28;20898;-76
2022/08/15 09:35:03;;;;;;;6.13;3.27;;;;;;;;;;5034967;28;20417;-76
2022/08/15 09:37:29;;;;;;;5.87;3.00;;;;;;;;;;5034916;28;20472;-76
2022/08/15 09:39:55;;;;;;;5.63;3.43;;;;;;;;;;5034508;28;20417;-77
2022/08/15 09:42:40;;;;;;;6.30;2.73;;;;;;;;;;5034684;28;20474;-76
2022/08/15 09:45:12;;;;;;;7.23;3.70;;;;;;;;;;5034609;28;20461;-75
2022/08/15 09:47:39;;;;;;;3.90;3.50;;;;;;;;;;5034692;28;20414;-76
2022/08/15 09:50:20;;;;;;;7.80;4.10;;;;;;;;;;5034104;28;20434;-77
2022/08/15 09:53:12;;;;;;;13.43;4.17;;;;;;;;;;5034501;28;20405;-76
2022/08/15 09:55:44;;;;;;;4.90;3.30;;;;;;;;;;5032532;28;20512;-76
2022/08/15 09:58:18;;;;;;;5.90;3.50;;;;;;;;;;5034321;28;20406;-75
2022/08/15 10:00:59;;;;;;;3.70;3.03;;;;;;;;;;5033895;28;20420;-74
2022/08/15 10:03:45;;;;;;;13.00;3.60;;;;;;;;;;5016666;28;20913;-75
2022/08/15 10:06:11;;;;;;;5.43;3.87;;;;;;;;;;5033986;28;20408;-74
2022/08/15 10:08:52;;;;;;;9.53;3.83;;;;;;;;;;5014958;28;20414;-75
2022/08/15 10:11:38;;;;;;;12.37;3.70;;;;;;;;;;5014073;28;20427;-74
2022/08/15 10:14:06;;;;;;;4.10;3.03;;;;;;;;;;5003271;28;20433;-74
2022/08/15 10:16:41;;;;;;;5.23;3.10;;;;;;;;;;5014247;28;20929;-75
2022/08/15 10:19:09;;;;;;;4.43;3.40;;;;;;;;;;5014302;28;20413;-74
2022/08/15 10:21:35;;;;;;;3.87;2.90;;;;;;;;;;5013942;28;20480;-74
2022/08/15 10:24:05;;;;;;;4.97;3.67;;;;;;;;;;5014350;28;20550;-75
2022/08/15 10:26:31;;;;;;;12.47;4.03;;;;;;;;;;5014034;28;20402;-76
2022/08/15 10:29:09;;;;;;;6.40;3.20;;;;;;;;;;5014181;28;20494;-74
2022/08/15 10:31:42;;;;;;;4.83;3.30;;;;;;;;;;5013942;28;20441;-74
2022/08/15 10:34:17;;;;;;;6.17;2.80;;;;;;;;;;5014145;28;20403;-74
2022/08/15 10:37:03;;;;;;;5.07;3.70;;;;;;;;;;5014027;28;20757;-74
2022/08/15 10:39:40;;;;;;;5.27;3.67;;;;;;;;;;5013788;28;20428;-74
2022/08/15 10:42:38;;;;;;;3.97;2.93;;;;;;;;;;5013920;28;20449;-75
2022/08/15 10:45:17;;;;;;;3.93;3.30;;;;;;;;;;5001928;28;20551;-74
2022/08/15 10:47:54;;;;;;;4.50;3.40;;;;;;;;;;5013894;28;20754;-74
2022/08/15 10:50:25;;;;;;;4.03;3.27;;;;;;;;;;5013278;28;20462;-74
2022/08/15 10:53:07;;;;;;;7.00;3.47;;;;;;;;;;5013680;28;21090;-74
2022/08/15 10:55:34;;;;;;;5.83;3.67;;;;;;;;;;5013735;28;20414;-74
2022/08/15 10:58:03;;;;;;;3.53;3.07;;;;;;;;;;5013738;28;20432;-73
2022/08/15 11:00:48;;;;;;;3.53;3.20;;;;;;;;;;5013313;28;20422;-73
2022/08/15 11:03:18;;;;;;;8.93;4.00;;;;;;;;;;5013519;28;20407;-76
2022/08/15 11:05:44;;;;;;;7.10;4.63;;;;;;;;;;5013602;28;20418;-76
2022/08/15 11:08:17;;;;;;;5.73;3.63;;;;;;;;;;5013660;28;20460;-76
2022/08/15 11:10:43;;;;;;;4.27;3.83;;;;;;;;;;5013178;28;20434;-77
2022/08/15 11:13:12;;;;;;;10.07;4.57;;;;;;;;;;5013458;28;20407;-76
2022/08/15 11:15:54;;;;;;;4.53;4.23;;;;;;;;;;5013713;28;20413;-76
2022/08/15 11:18:23;;;;;;;6.83;5.07;;;;;;;;;;5012898;28;20399;-75
2022/08/15 11:20:52;;;;;;;5.23;4.30;;;;;;;;;;5012964;28;20437;-77
2022/08/15 11:23:36;;;;;;;4.57;4.13;;;;;;;;;;5013309;28;20479;-74
2022/08/15 11:26:03;;;;;;;7.20;4.50;;;;;;;;;;5013441;28;20411;-74
2022/08/15 11:28:30;;;;;;;6.37;5.33;;;;;;;;;;5013389;28;20465;-74
2022/08/15 11:31:07;;;;;;;5.17;4.67;;;;;;;;;;5012985;28;20505;-74
2022/08/15 11:33:41;;;;;;;5.77;4.67;;;;;;;;;;5013090;28;20419;-74
2022/08/15 11:36:10;;;;;;;5.40;4.90;;;;;;;;;;5013371;28;20409;-75
2022/08/15 11:38:37;;;;;;;5.93;5.30;;;;;;;;;;5013179;28;20771;-74
2022/08/15 11:41:04;;;;;;;5.73;5.20;;;;;;;;;;5012979;28;20430;-74
2022/08/15 11:43:31;;;;;;;5.60;5.10;;;;;;;;;;5013087;28;20414;-74
2022/08/15 11:45:58;;;;;;;7.20;5.20;;;;;;;;;;5013342;28;20891;-74
2022/08/15 11:48:34;;;;;;;4.63;4.17;;;;;;;;;;5013128;28;20752;-73
2022/08/15 11:51:02;;;;;;;5.03;4.63;;;;;;;;;;5012722;28;20438;-74
2022/08/15 11:53:30;;;;;;;7.03;4.10;;;;;;;;;;5012957;28;20414;-74
2022/08/15 11:55:56;;;;;;;4.67;4.27;;;;;;;;;;5013088;28;20410;-74
2022/08/15 11:58:34;;;;;;;4.20;3.80;;;;;;;;;;5013079;28;20524;-73
2022/08/15 12:01:01;;;;;;;3.90;3.60;;;;;;;;;;5012658;28;20774;-75
2022/08/15 12:03:32;;;;;;;4.57;3.23;;;;;;;;;;5012766;28;20402;-74
2022/08/15 12:06:18;;;;;;;3.97;3.47;;;;;;;;;;5012986;28;20414;-74
2022/08/15 12:08:46;;;;;;;5.70;4.10;;;;;;;;;;5012807;28;20406;-74
2022/08/15 12:11:15;;;;;;;4.13;3.73;;;;;;;;;;5012596;28;20509;-74
2022/08/15 12:14:01;;;;;;;5.20;3.83;;;;;;;;;;5011569;28;20419;-73
2022/08/15 12:16:29;;;;;;;5.07;3.20;;;;;;;;;;5012816;28;20444;-73
2022/08/15 12:18:55;;;;;;;6.30;4.00;;;;;;;;;;5012891;28;20418;-73
2022/08/15 12:21:23;;;;;;;4.80;3.80;;;;;;;;;;5012276;28;20438;-73
2022/08/15 12:24:00;;;;;;;4.30;3.90;;;;;;;;;;5012826;28;20547;-73
2022/08/15 12:26:27;;;;;;;4.50;3.70;;;;;;;;;;5012781;28;20414;-73
2022/08/15 12:28:55;;;;;;;3.50;3.20;;;;;;;;;;5012974;28;20407;-73
2022/08/15 12:31:21;;;;;;;3.57;3.20;;;;;;;;;;5015634;28;20502;-74
2022/08/15 12:33:47;;;;;;;4.60;3.67;;;;;;;;;;5016278;28;20418;-74
2022/08/15 12:36:14;;;;;;;4.30;3.80;;;;;;;;;;5016223;28;20419;-74
2022/08/15 12:38:40;;;;;;;3.67;3.37;;;;;;;;;;5016234;28;20418;-74
2022/08/15 12:41:08;;;;;;;4.43;3.27;;;;;;;;;;5015600;28;20529;-75
2022/08/15 12:43:35;;;;;;;3.87;3.57;;;;;;;;;;5015874;28;20465;-75
2022/08/15 12:46:01;;;;;;;4.10;3.20;;;;;;;;;;5015992;28;20514;-73
2022/08/15 12:48:29;;;;;;;6.80;3.70;;;;;;;;;;5015919;28;20414;-73
2022/08/15 12:50:55;;;;;;;4.50;3.70;;;;;;;;;;5015321;28;21042;-73
2022/08/15 12:53:22;;;;;;;4.63;3.47;;;;;;;;;;5015885;28;20778;-73
2022/08/15 12:55:49;;;;;;;4.70;3.10;;;;;;;;;;5015686;28;20430;-73
2022/08/15 12:58:16;;;;;;;3.73;3.43;;;;;;;;;;5015782;28;20545;-73
2022/08/15 13:00:43;;;;;;;8.27;3.60;;;;;;;;;;5015329;28;20513;-73
2022/08/15 13:03:28;;;;;;;3.40;3.10;;;;;;;;;;5015763;28;20495;-73
2022/08/15 13:06:11;;;;;;;3.70;3.40;;;;;;;;;;5015407;28;20442;-73
2022/08/15 13:08:37;;;;;;;3.60;3.30;;;;;;;;;;5015653;28;20465;-73
2022/08/15 13:11:03;;;;;;;4.47;3.67;;;;;;;;;;5015348;28;20885;-73
2022/08/15 13:13:29;;;;;;;4.37;3.97;;;;;;;;;;5015486;28;20914;-73
2022/08/15 13:15:55;;;;;;;3.37;3.17;;;;;;;;;;5015313;28;20413;-74
2022/08/15 13:18:23;;;;;;;3.53;3.23;;;;;;;;;;5015690;28;20969;-73
2022/08/15 13:23:40;;;;;;;5.47;3.97;;;;;;;;;;5015263;28;20410;-73
2022/08/15 13:26:11;;;;;;;3.23;3.00;;;;;;;;;;5015153;28;20418;-73
2022/08/15 13:28:38;;;;;;;5.43;3.77;;;;;;;;;;5015327;28;20445;-73
2022/08/15 13:31:04;;;;;;;3.30;3.00;;;;;;;;;;5014861;28;20430;-73
2022/08/15 13:33:31;;;;;;;4.20;3.47;;;;;;;;;;5015359;28;20446;-73
2022/08/15 13:35:58;;;;;;;4.90;3.30;;;;;;;;;;5014964;28;20403;-73
2022/08/15 13:38:27;;;;;;;4.07;3.30;;;;;;;;;;5014927;28;20410;-73
2022/08/15 13:40:53;;;;;;;4.50;3.40;;;;;;;;;;5014494;28;20481;-74
2022/08/15 13:43:20;;;;;;;3.40;2.97;;;;;;;;;;5014734;28;20418;-74
2022/08/15 13:45:47;;;;;;;3.77;3.27;;;;;;;;;;5014789;28;20438;-72
2022/08/15 13:48:16;;;;;;;3.93;3.57;;;;;;;;;;5014839;28;20414;-74
2022/08/15 13:50:42;;;;;;;4.70;3.23;;;;;;;;;;5014476;28;20810;-75
2022/08/15 13:53:08;;;;;;;6.53;3.07;;;;;;;;;;5014827;28;20431;-72
2022/08/15 13:55:34;;;;;;;3.60;3.30;;;;;;;;;;5014867;28;20403;-72
2022/08/15 13:58:00;;;;;;;6.97;3.60;;;;;;;;;;5014639;28;20922;-77
2022/08/15 14:00:26;;;;;;;4.53;4.13;;;;;;;;;;5014101;28;20438;-76
2022/08/15 14:02:52;;;;;;;3.40;3.10;;;;;;;;;;5014718;28;20489;-77
2022/08/15 14:05:19;;;;;;;3.27;2.97;;;;;;;;;;5014436;28;20553;-77
2022/08/15 14:07:46;;;;;;;4.03;3.17;;;;;;;;;;5014748;28;20419;-76
2022/08/15 14:10:16;;;;;;;5.70;2.97;;;;;;;;;;5014120;28;20438;-76
2022/08/15 14:12:43;;;;;;;4.87;3.00;;;;;;;;;;5014567;28;20805;-76
2022/08/15 14:15:13;;;;;;;3.03;2.80;;;;;;;;;;5014539;28;20417;-76
2022/08/15 14:17:43;;;;;;;3.57;2.80;;;;;;;;;;5014568;28;20442;-76
2022/08/15 14:20:11;;;;;;;3.10;2.90;;;;;;;;;;5013942;28;20509;-76
2022/08/15 14:22:37;;;;;;;3.10;2.03;;;;;;;;;;5014080;28;20411;-76
2022/08/15 14:25:03;;;;;;;2.90;2.37;;;;;;;;;;5014035;28;20461;-75
2022/08/15 14:27:30;;;;;;;2.70;2.50;;;;;;;;;;5013994;28;20458;-75
2022/08/15 14:29:56;;;;;;;3.13;2.67;;;;;;;;;;5013783;28;20406;-76
2022/08/15 14:32:23;;;;;;;2.57;2.37;;;;;;;;;;5014201;28;20457;-75
2022/08/15 14:34:49;;;;;;;3.20;2.60;;;;;;;;;;5013914;28;20446;-75
2022/08/15 14:37:17;;;;;;;2.60;2.40;;;;;;;;;;5013953;28;20501;-75
2022/08/15 14:39:45;;;;;;;3.73;2.97;;;;;;;;;;5013556;28;20433;-75
2022/08/15 14:42:12;;;;;;;3.33;2.13;;;;;;;;;;5013968;28;20414;-75
2022/08/15 14:44:38;;;;;;;3.03;2.77;;;;;;;;;;5013530;28;20493;-75
2022/08/15 14:47:06;;;;;;;4.63;2.73;;;;;;;;;;5013904;28;20476;-75
2022/08/15 14:49:32;;;;;;;4.43;2.73;;;;;;;;;;5021889;28;20898;-74
2022/08/15 14:51:58;;;;;;;2.93;2.63;;;;;;;;;;5033338;28;20441;-75
2022/08/15 14:54:24;;;;;;;2.20;2.00;;;;;;;;;;5015644;28;20787;-75
2022/08/15 14:56:50;;;;;;;3.30;2.30;;;;;;;;;;5025772;28;20421;-75
2022/08/15 14:59:16;;;;;;;2.43;2.20;;;;;;;;;;5031987;28;20436;-75
2022/08/15 15:01:43;;;;;;;3.40;2.07;;;;;;;;;;5031130;28;20441;-74
2022/08/15 15:04:11;;;;;;;2.53;2.33;;;;;;;;;;5031217;28;20818;-74
2022/08/15 15:06:37;;;;;;;3.20;2.07;;;;;;;;;;5031336;28;20457;-75
2022/08/15 15:09:03;;;;;;;3.50;2.30;;;;;;;;;;5030827;28;20429;-74